Tiempo atmosférico en la estación meteorológica de Almonte, Huelva (5 m.)



Fecha
DESCASC
Temp. máxima en grados centígrados (hora)
DESCASC
Temp. mínima en grados centígrados (hora)
DESCASC
Temp. media en grados centígrados
DESCASC
Racha de viento máxima en m/sg (hora)
DESCASC
Velocidad máxima media en intervalos de 10 minutos(hora)
DESCASC
Precipitaciones diarias en mm
DESCASC
Precipitaciones de 00:00 a 06:00 en mm
DESCASC
Precipitaciones de 06:00 a 12:00 en mm
DESCASC
Precipitaciones de 12:00 a 18:00 en mm
DESCASC
Precipitaciones de 18:00 a 24:00 en mm
DESCASC
24-05-2020 35.2 (15:40) 16.4 (08:00) 25.8 7.22 (16:00) 4.72 (16:00) 0 0 0 0 0
23-05-2020 36.2 (16:40) 16.5 (07:20) 26.4 7.78 (19:00) 6.11 (18:10) 0 0 0 0 0
22-05-2020 33.8 (15:10) 13.6 (05:00) 23.7 6.67 (15:10) 5.28 (17:40) 0 0 0 0 0
21-05-2020 31.1 (13:40) 14.2 (00:00) 22.7 8.61 (17:30) 6.67 (17:30) 0 0 0 0 0
20-05-2020 30.8 (16:30) 14.2 (00:00) 22.5 8.33 (17:00) 5.83 (17:00) 0 0 0 0 0
19-05-2020 31.5 (17:30) 12.9 (00:00) 22.2 7.5 (18:30) 5.28 (18:10) 0 0 0 0 0
18-05-2020 27.7 (17:10) 13.1 (00:00) 20.4 6.67 (18:10) 5 (17:30) 0 0 0 0 0
17-05-2020 24.6 (15:30) 11.8 (00:00) 18.2 7.78 (19:20) 5.83 (18:00) 0 0 0 0 0
16-05-2020 22.9 (16:00) 11.2 (00:00) 17 7.78 (14:50) 5.83 (18:10) 0 0 0 0 0
15-05-2020 21.7 (17:40) 12.1 (00:00) 16.9 8.89 (17:10) 5.83 (17:00) 3 3 0 0 0
14-05-2020 18.1 (16:20) 12.3 (00:00) 15.2 16.39 (14:30) 10.83 (14:30) 31.4 1.4 17.4 7.2 5.4
13-05-2020 21.9 (16:00) 12.9 (00:00) 17.4 14.44 (17:20) 9.44 (17:30) 2.8 0.2 1.6 0.2 0.8
12-05-2020 19.6 (17:20) 12.1 (00:00) 15.9 11.11 (16:30) 7.5 (17:20) 3.2 0 2.8 0.4 0
11-05-2020 22.9 (16:00) 14.5 (00:00) 18.7 12.78 (09:50) 8.89 (12:40) 0.2 0 0.2 0 0
10-05-2020 20.9 (14:40) 14.2 (00:00) 17.5 14.72 (17:00) 10.28 (16:30) 2.8 0.2 1 1.6 0
09-05-2020 22.6 (16:30) 14.8 (00:00) 18.7 12.78 (17:10) 8.61 (17:00) 2.6 0 0 0 2.6
08-05-2020 23.7 (11:40) 12.9 (00:00) 18.3 11.11 (12:20) 7.78 (16:20) 0 0 0 0 0
07-05-2020 30.7 (15:30) 15 (00:00) 22.9 13.33 (19:10) 7.22 (16:20) 0 0 0 0 0
06-05-2020 29.2 (17:30) 12.5 (00:00) 20.9 7.22 (17:40) 5.28 (18:50) 0 0 0 0 0
05-05-2020 24.8 (15:50) 13.5 (00:00) 19.1 9.72 (19:00) 6.94 (18:40) 0 0 0 0 0
04-05-2020 24.4 (16:20) 17 (00:00) 20.7 14.17 (11:00) 10 (11:00) 0 0 0 0 0
03-05-2020 35.9 (17:40) 13.6 (00:00) 24.8 5.83 (10:20) 3.89 (09:40) 0 0 0 0 0
02-05-2020 29.6 (17:20) 13 (00:00) 21.3 6.39 (20:20) 4.72 (17:40) 0 0 0 0 0
01-05-2020 25.1 (17:10) 11.8 (00:00) 18.5 9.17 (18:40) 6.67 (18:40) 0 0 0 0 0
30-04-2020 22.4 (13:40) 14.7 (00:00) 18.5 10 (15:30) 6.67 (15:50) 0.4 0 0.4 0 0
29-04-2020 21.7 (16:20) 8.6 (00:00) 15.2 10.56 (20:00) 7.78 (20:00) 0 0 0 0 0
28-04-2020 22.2 (16:40) 11.5 (00:00) 16.9 8.61 (20:50) 5.83 (19:50) 0 0 0 0 0

Gráficas

Temp. máximas Temp. mínimas Temp. medias Precipitaciones Rachas de viento máximas Velocidades máximas media en intervalos de 10 minutos

Datos horarios

Fecha y hora oficial Temperatura (ºC) Velocidad del viento (km/h) Dirección del viento Racha (km/h) Dirección de racha Precipitación (mm) Presión (hPa) Tendencia (hPa) Humedad (%)
2020-05-27 23:00:00 22 4 Sudeste 19 Este 0 -- -- 49
2020-05-27 22:00:00 23.6 5 Sudeste 26 Sudeste 0 -- -- 45
2020-05-27 21:00:00 26.6 15 Sudeste 27 Este 0 -- -- 38
2020-05-27 20:00:00 29.5 10 Sudeste 30 Este 0 -- -- 36
2020-05-27 19:00:00 31.1 13 Sudeste 30 Sudeste 0 -- -- 33
2020-05-27 18:00:00 32.7 9 Sudeste 25 Este 0 -- -- 32
2020-05-27 17:00:00 32.7 7 Este 22 Sudeste 0 -- -- 35
2020-05-27 16:00:00 32.7 7 Sudeste 26 Sudeste 0 -- -- 37
2020-05-27 15:00:00 31.7 12 Este 33 Sudeste 0 -- -- 39
2020-05-27 14:00:00 30 8 Este 22 Nordeste 0 -- -- 40
2020-05-27 13:00:00 28.8 7 Este 18 Nordeste 0 -- -- 38
2020-05-27 12:00:00 27.6 9 Nordeste 20 Nordeste 0 -- -- 44
2020-05-27 11:00:00 25 11 Nordeste 18 Nordeste 0 -- -- 52
2020-05-27 10:00:00 21.8 6 Nordeste 14 Nordeste 0 -- -- 66
2020-05-27 09:00:00 18 6 Nordeste 11 Nordeste 0 -- -- 83
2020-05-27 08:00:00 12.8 0 Calma 3 Norte 0 -- -- 92
2020-05-27 07:00:00 13.8 3 Norte 5 Norte 0 -- -- 93
2020-05-27 06:00:00 14.2 0 Calma 8 Nordeste 0 -- -- 86
2020-05-27 05:00:00 15 4 Nordeste 6 Nordeste 0 -- -- 86
2020-05-27 04:00:00 16.1 2 Nordeste 8 Nordeste 0 -- -- 76
2020-05-27 03:00:00 17.7 4 Nordeste 9 Nordeste 0 -- -- 76
2020-05-27 02:00:00 18 6 Nordeste 10 Norte 0 -- -- 71
2020-05-27 01:00:00 18.7 4 Nordeste 5 Nordeste 0 -- -- 69
2020-05-27 00:00:00 20 0 Calma 7 Sudeste 0 -- -- 60
2020-05-26 23:00:00 21.2 2 Sudeste 8 Sur 0 -- -- 57
2020-05-26 22:00:00 23.7 3 Sudeste 15 Sur 0 -- -- 50
2020-05-26 21:00:00 27.6 8 Sudeste 22 Sur 0 -- -- 42
2020-05-26 20:00:00 30.7 14 Sur 26 Sur 0 -- -- 36
2020-05-26 19:00:00 32.3 13 Sudoeste 24 Sudoeste 0 -- -- 34
2020-05-26 18:00:00 33.1 10 Sudoeste 21 Sudoeste 0 -- -- 33
2020-05-26 17:00:00 33.7 6 Sudoeste 18 Oeste 0 -- -- 31
2020-05-26 16:00:00 32.9 9 Sudoeste 17 Sudoeste 0 -- -- 32
2020-05-26 15:00:00 31.3 6 Nordeste 17 Nordeste 0 -- -- 28
2020-05-26 14:00:00 30.3 5 Este 13 Este 0 -- -- 32
2020-05-26 13:00:00 28.7 9 Nordeste 18 Nordeste 0 -- -- 33
2020-05-26 12:00:00 27.9 9 Este 19 Este 0 -- -- 39
2020-05-26 11:00:00 25.8 10 Nordeste 24 Este 0 -- -- 46
2020-05-26 10:00:00 22 8 Nordeste 17 Nordeste 0 -- -- 58
2020-05-26 09:00:00 19 10 Nordeste 14 Nordeste 0 -- -- 75
2020-05-26 08:00:00 16.7 5 Nordeste 15 Norte 0 -- -- 88
2020-05-26 07:00:00 16.2 5 Norte 15 Norte 0 -- -- 92
2020-05-26 06:00:00 16.3 4 Norte 7 Norte 0 -- -- 91
2020-05-26 05:00:00 16.9 2 Norte 8 Nordeste 0 -- -- 91
2020-05-26 04:00:00 17.7 4 Norte 12 Nordeste 0 -- -- 91
2020-05-26 03:00:00 17.7 5 Nordeste 9 Nordeste 0 -- -- 81
2020-05-26 02:00:00 18.6 3 Norte 9 Nordeste 0 -- -- 82
2020-05-26 01:00:00 19.1 4 Nordeste 8 Nordeste 0 -- -- 75
2020-05-26 00:00:00 19.7 4 Norte 8 Norte 0 -- -- 70
2020-05-25 23:00:00 21.6 2 Este 6 Sudeste 0 -- -- 62
2020-05-25 22:00:00 23.5 5 Sur 14 Sur 0 -- -- 56
2020-05-25 21:00:00 27.5 10 Sur 19 Sur 0 -- -- 46
2020-05-25 20:00:00 29.7 17 Sur 23 Sur 0 -- -- 42
2020-05-25 19:00:00 30.9 15 Sudoeste 23 Sudoeste 0 -- -- 45
2020-05-25 18:00:00 29.7 18 Sudoeste 27 Sudoeste 0 -- -- 49
2020-05-25 17:00:00 29.3 19 Sudoeste 28 Sudoeste 0 -- -- 46
2020-05-25 16:00:00 29.7 19 Oeste 26 Oeste 0 -- -- 44
2020-05-25 15:00:00 31.5 16 Oeste 25 Sudoeste 0 -- -- 43
2020-05-25 14:00:00 30.7 6 Norte 11 Noroeste 0 -- -- 36
2020-05-25 13:00:00 29.3 5 Nordeste 17 Nordeste 0 -- -- 41
2020-05-25 12:00:00 27.1 4 Norte 13 Norte 0 -- -- 49
2020-05-25 11:00:00 24.6 7 Nordeste 15 Nordeste 0 -- -- 58
2020-05-25 10:00:00 21.8 8 Nordeste 14 Nordeste 0 -- -- 72
2020-05-25 09:00:00 18.5 4 Nordeste 9 Norte 0 -- -- 83
2020-05-25 08:00:00 16.5 2 Norte 12 Noroeste 0 -- -- 84
2020-05-25 07:00:00 15.6 5 Noroeste 11 Noroeste 0 -- -- 86
2020-05-25 06:00:00 16.2 6 Noroeste 12 Noroeste 0 -- -- 84
2020-05-25 05:00:00 15.1 3 Noroeste 8 Norte 0 -- -- 84
2020-05-25 04:00:00 14.6 0 Calma 5 Noroeste 0 -- -- 74
2020-05-25 03:00:00 15.7 2 Norte 4 Noroeste 0 -- -- 68
2020-05-25 02:00:00 17.9 3 Noroeste 6 Noroeste 0 -- -- 57
2020-05-25 01:00:00 19.1 0 Calma 15 Noroeste 0 -- -- 54
2020-05-25 00:00:00 19.6 3 Sur 7 Sudeste 0 -- -- 54
2020-05-24 23:00:00 20.9 8 Sur 13 Sudeste 0 -- -- 52
2020-05-24 22:00:00 24.4 8 Sur 13 Sur 0 -- -- 48
2020-05-24 21:00:00 29.1 5 Sur 21 Oeste 0 -- -- 50
2020-05-24 20:00:00 32.1 11 Sudoeste 15 Oeste 0 -- -- 35
2020-05-24 19:00:00 32 10 Oeste 21 Sudoeste 0 -- -- 37
2020-05-24 18:00:00 33.1 12 Sudoeste 19 Oeste 0 -- -- 34
2020-05-24 17:00:00 33.9 13 Sudoeste 22 Oeste 0 -- -- 34
2020-05-24 16:00:00 34.2 17 Sudoeste 26 Oeste 0 -- -- 35
2020-05-24 15:00:00 34.4 7 Este 17 Este 0 -- -- 30
2020-05-24 14:00:00 33.1 6 Este 19 Nordeste 0 -- -- 34
2020-05-24 13:00:00 32.9 7 Sudeste 24 Sudeste 0 -- -- 31
2020-05-24 12:00:00 30.8 8 Sudeste 20 Sudeste 0 -- -- 35
2020-05-24 11:00:00 26.9 3 Nordeste 7 Nordeste 0 -- -- 50
2020-05-24 10:00:00 23.3 3 Nordeste 4 Nordeste 0 -- -- 65
2020-05-24 09:00:00 19.3 0 Calma 4 Nordeste 0 -- -- 88
2020-05-24 08:00:00 16.4 3 Nordeste 7 Nordeste 0 -- -- 87
2020-05-24 07:00:00 17.2 0 Calma 4 Oeste 0 -- -- 85
2020-05-24 06:00:00 18.4 4 Oeste 5 Sudoeste 0 -- -- 79
2020-05-24 05:00:00 19.5 2 Sudoeste 15 Sudoeste 0 -- -- 78
2020-05-24 04:00:00 18.8 8 Sudoeste 10 Sudoeste 0 -- -- 79
2020-05-24 03:00:00 20.2 8 Sudoeste 14 Oeste 0 -- -- 73
2020-05-24 02:00:00 20.3 9 Noroeste 14 Sudoeste 0 -- -- 82
2020-05-24 01:00:00 20.8 5 Sudoeste 13 Oeste 0 -- -- 71
2020-05-24 00:00:00 21.5 3 Oeste 15 Oeste 0 -- -- 67
2020-05-23 23:00:00 21.9 9 Oeste 12 Oeste 0 -- -- 66
2020-05-23 22:00:00 24.4 7 Oeste 13 Sudoeste 0 -- -- 59
2020-05-23 21:00:00 28.3 9 Oeste 21 Sudoeste 0 -- -- 49
2020-05-23 20:00:00 31 15 Sudoeste 27 Sudoeste 0 -- -- 38
2020-05-23 19:00:00 32.2 19 Sudoeste 28 Oeste 0 -- -- 37
2020-05-23 18:00:00 34 21 Sudoeste 27 Sudoeste 0 -- -- 37
2020-05-23 17:00:00 35.4 14 Oeste 21 Oeste 0 -- -- 36
2020-05-23 16:00:00 35.2 4 Nordeste 11 Nordeste 0 -- -- 32
2020-05-23 15:00:00 34.3 6 Nordeste 15 Nordeste 0 -- -- 36
2020-05-23 14:00:00 33.3 6 Este 14 Este 0 -- -- 43
2020-05-23 13:00:00 31.3 9 Nordeste 18 Nordeste 0 -- -- 44
2020-05-23 12:00:00 29.7 9 Este 21 Este 0 -- -- 46
2020-05-23 11:00:00 27 13 Nordeste 20 Nordeste 0 -- -- 56
2020-05-23 10:00:00 23 6 Nordeste 12 Nordeste 0 -- -- 76
2020-05-23 09:00:00 19 3 Nordeste 6 Nordeste 0 -- -- 86
2020-05-23 08:00:00 16.8 4 Noroeste 9 Noroeste 0 -- -- 85
2020-05-23 07:00:00 16.8 3 Norte 7 Norte 0 -- -- 87
2020-05-23 06:00:00 17.6 4 Nordeste 13 Sudeste 0 -- -- 88
2020-05-23 05:00:00 19 3 Norte 15 Noroeste 0 -- -- 72
2020-05-23 04:00:00 18.3 8 Noroeste 12 Noroeste 0 -- -- 74
2020-05-23 03:00:00 17 0 Calma 5 Oeste 0 -- -- 80
2020-05-23 02:00:00 18.2 4 Sudoeste 6 Sudoeste 0 -- -- 77
2020-05-23 01:00:00 18.2 5 Sur 8 Sur 0 -- -- 72
2020-05-23 00:00:00 19.5 3 Sudoeste 10 Oeste 0 -- -- 66
2020-05-22 23:00:00 21.9 6 Oeste 15 Oeste 0 -- -- 57
2020-05-22 22:00:00 23.7 11 Oeste 15 Oeste 0 -- -- 59
2020-05-22 21:00:00 28.7 11 Oeste 19 Oeste 0 -- -- 41
2020-05-22 20:00:00 32.3 14 Oeste 21 Oeste 0 -- -- 31
2020-05-22 19:00:00 33.3 15 Oeste 20 Sudoeste 0 -- -- 29
2020-05-22 18:00:00 32.4 17 Oeste 24 Oeste 0 -- -- 35
2020-05-22 17:00:00 33.1 17 Sudoeste 22 Sudoeste 0 -- -- 37
2020-05-22 16:00:00 33.6 15 Sudoeste 24 Sudoeste 0 -- -- 39
2020-05-22 15:00:00 33.6 5 Oeste 11 Sudoeste 0 -- -- 40
2020-05-22 14:00:00 31.7 4 Este 9 Noroeste 0 -- -- 43
2020-05-22 13:00:00 29.5 4 Norte 10 Nordeste 0 -- -- 52
2020-05-22 12:00:00 27.6 5 Nordeste 13 Nordeste 0 -- -- 60
2020-05-22 11:00:00 24.5 9 Nordeste 16 Este 0 -- -- 73
2020-05-22 10:00:00 19.8 5 Nordeste 9 Nordeste 0 -- -- 98
2020-05-22 09:00:00 16.6 0 Calma 4 Noroeste 0 -- -- 98
2020-05-22 08:00:00 13.7 0 Calma 6 Nordeste 0 -- -- 96
2020-05-22 07:00:00 14.7 3 Norte 9 Norte 0 -- -- 96
2020-05-22 06:00:00 14.5 0 Calma 6 Noroeste 0 -- -- 96
2020-05-22 05:00:00 13.6 4 Oeste 5 Oeste 0 -- -- 95
2020-05-22 04:00:00 14.4 5 Oeste 6 Sudoeste 0 -- -- 95
2020-05-22 03:00:00 15.5 3 Sur 6 Sur 0 -- -- 94
2020-05-22 02:00:00 16.1 3 Sudeste 7 Sudeste 0 -- -- 94
2020-05-22 01:00:00 16.7 4 Sudeste 6 Este 0 -- -- 89
2020-05-22 00:00:00 17.6 0 Calma 9 Oeste 0 -- -- 87
2020-05-21 23:00:00 19.3 5 Sudoeste 15 Oeste 0 -- -- 82
2020-05-21 22:00:00 21.4 7 Oeste 17 Oeste 0 -- -- 77
2020-05-21 21:00:00 24 10 Oeste 23 Oeste 0 -- -- 68
2020-05-21 20:00:00 26.1 16 Oeste 26 Sudoeste 0 -- -- 63
2020-05-21 19:00:00 26.3 21 Sudoeste 29 Sudoeste 0 -- -- 63
2020-05-21 18:00:00 26.6 22 Oeste 31 Oeste 0 -- -- 64
2020-05-21 17:00:00 27.3 23 Sudoeste 30 Sudoeste 0 -- -- 65
2020-05-21 16:00:00 29.2 19 Sudoeste 24 Sudoeste 0 -- -- 58
2020-05-21 15:00:00 29.6 18 Sudoeste 23 Sudoeste 0 -- -- 58
2020-05-21 14:00:00 30.2 17 Sudoeste 24 Sudoeste 0 -- -- 57
2020-05-21 13:00:00 30 7 Nordeste 14 Nordeste 0 -- -- 49
2020-05-21 12:00:00 28.1 8 Nordeste 15 Este 0 -- -- 54
2020-05-21 11:00:00 25 5 Nordeste 12 Nordeste 0 -- -- 75
2020-05-21 10:00:00 21.1 4 Nordeste 8 Nordeste 0 -- -- 95
2020-05-21 09:00:00 17.9 4 Nordeste 8 Nordeste 0 -- -- 97
2020-05-21 08:00:00 14.6 2 Norte 4 Norte 0 -- -- 96
2020-05-21 07:00:00 14.6 0 Calma 4 Este 0 -- -- 95
2020-05-21 06:00:00 14.4 0 Calma 4 Oeste 0 -- -- 93
2020-05-21 05:00:00 15 3 Oeste 4 Sudoeste 0 -- -- 93
2020-05-21 04:00:00 15.9 4 Sudoeste 6 Sur 0 -- -- 93
2020-05-21 03:00:00 16.1 0 Calma 6 Sudeste 0 -- -- 91
2020-05-21 02:00:00 16.8 3 Sur 6 Oeste 0 -- -- 89
2020-05-21 01:00:00 17.4 0 Calma 6 Sudoeste 0 -- -- 91
2020-05-21 00:00:00 18.5 2 Norte 9 Oeste 0 -- -- 85
2020-05-20 23:00:00 19.5 9 Oeste 15 Oeste 0 -- -- 79
2020-05-20 22:00:00 20.9 10 Oeste 16 Oeste 0 -- -- 73
2020-05-20 21:00:00 24.2 12 Oeste 28 Oeste 0 -- -- 60
2020-05-20 20:00:00 26.6 18 Oeste 27 Oeste 0 -- -- 54
2020-05-20 19:00:00 27.9 19 Sudoeste 26 Sudoeste 0 -- -- 51
2020-05-20 18:00:00 28.8 19 Oeste 28 Oeste 0 -- -- 47
2020-05-20 17:00:00 29.6 21 Oeste 30 Oeste 0 -- -- 46
2020-05-20 16:00:00 30.3 18 Oeste 28 Oeste 0 -- -- 47
2020-05-20 15:00:00 30 17 Oeste 24 Sudoeste 0 -- -- 43
2020-05-20 14:00:00 28.9 15 Sudoeste 27 Sudoeste 0 -- -- 49
2020-05-20 13:00:00 27.9 14 Oeste 19 Sudoeste 0 -- -- 50
2020-05-20 12:00:00 26.8 10 Sudoeste 17 Sudoeste 0 -- -- 52
2020-05-20 11:00:00 24.5 6 Sudoeste 12 Sudoeste 0 -- -- 63
2020-05-20 10:00:00 20 2 Norte 7 Oeste 0 -- -- 85
2020-05-20 09:00:00 16.2 0 Calma 9 Sudoeste 0 -- -- 96
2020-05-20 08:00:00 14.2 3 Sudoeste 5 Este 0 -- -- 93
2020-05-20 07:00:00 15 0 Calma 8 Nordeste 0 -- -- 90
2020-05-20 06:00:00 15.9 5 Nordeste 14 Norte 0 -- -- 89
2020-05-20 05:00:00 16.2 6 Noroeste 10 Oeste 0 -- -- 94
2020-05-20 04:00:00 15.7 4 Oeste 8 Sudoeste 0 -- -- 95
2020-05-20 03:00:00 15.8 5 Oeste 8 Sur 0 -- -- 94
2020-05-20 02:00:00 16.4 3 Sudeste 5 Sudeste 0 -- -- 92
2020-05-20 01:00:00 16 5 Sur 6 Sur 0 -- -- 87
2020-05-20 00:00:00 17.4 2 Sur 6 Oeste 0 -- -- 79
2020-05-19 23:00:00 19.3 6 Oeste 17 Oeste 0 -- -- 76
2020-05-19 22:00:00 21.1 10 Oeste 20 Oeste 0 -- -- 71
2020-05-19 21:00:00 25.1 15 Oeste 23 Oeste 0 -- -- 55
2020-05-19 20:00:00 27.6 13 Oeste 25 Oeste 0 -- -- 40
2020-05-19 19:00:00 29.6 17 Oeste 27 Oeste 0 -- -- 35
2020-05-19 18:00:00 31 16 Oeste 27 Sudoeste 0 -- -- 34
2020-05-19 17:00:00 31.1 6 Norte 17 Nordeste 0 -- -- 34
2020-05-19 16:00:00 30.7 4 Nordeste 13 Nordeste 0 -- -- 36
2020-05-19 15:00:00 30 8 Nordeste 15 Nordeste 0 -- -- 37
2020-05-19 14:00:00 29.4 6 Este 15 Este 0 -- -- 46
2020-05-19 13:00:00 27.6 6 Nordeste 13 Este 0 -- -- 55
2020-05-19 12:00:00 25.5 6 Nordeste 13 Nordeste 0 -- -- 61
2020-05-19 11:00:00 22.2 6 Nordeste 15 Nordeste 0 -- -- 73
2020-05-19 10:00:00 20.4 10 Nordeste 14 Nordeste 0 -- -- 79
2020-05-19 09:00:00 17.3 9 Nordeste 13 Nordeste 0 -- -- 96
2020-05-19 08:00:00 14.8 7 Nordeste 10 Norte 0 -- -- 97
2020-05-19 07:00:00 13.2 0 Calma 2 Nordeste 0 -- -- 95
2020-05-19 06:00:00 13.4 0 Calma 3 Este 0 -- -- 93
2020-05-19 05:00:00 14.6 0 Calma 5 Sudeste 0 -- -- 91
2020-05-19 04:00:00 15.8 0 Calma 5 Sur 0 -- -- 91
2020-05-19 03:00:00 16.5 0 Calma 9 Este 0 -- -- 89
2020-05-19 02:00:00 17.7 4 Este 12 Oeste 0 -- -- 83
2020-05-19 01:00:00 18.1 8 Oeste 14 Oeste 0 -- -- 86
2020-05-19 00:00:00 18.3 9 Oeste 15 Oeste 0 -- -- 85
2020-05-18 23:00:00 18.6 11 Oeste 15 Noroeste 0 -- -- 82
2020-05-18 22:00:00 19.5 9 Oeste 18 Oeste 0 -- -- 76
2020-05-18 21:00:00 22 14 Oeste 24 Oeste 0 -- -- 68
2020-05-18 20:00:00 25.6 16 Oeste 23 Oeste 0 -- -- 55
2020-05-18 19:00:00 26.2 15 Sudoeste 24 Sudoeste 0 -- -- 54
2020-05-18 18:00:00 26.9 18 Sudoeste 24 Sudoeste 0 -- -- 52
2020-05-18 17:00:00 27.6 17 Sudoeste 22 Oeste 0 -- -- 51
2020-05-18 16:00:00 27.2 14 Oeste 22 Oeste 0 -- -- 51
2020-05-18 15:00:00 27 17 Sudoeste 23 Sudoeste 0 -- -- 53
2020-05-18 14:00:00 25.4 6 Este 12 Norte 0 -- -- 59
2020-05-18 13:00:00 24.4 5 Nordeste 14 Nordeste 0 -- -- 62
2020-05-18 12:00:00 22.7 5 Nordeste 14 Nordeste 0 -- -- 68
2020-05-18 11:00:00 20.9 6 Nordeste 13 Nordeste 0 -- -- 73
2020-05-18 10:00:00 18 7 Nordeste 15 Nordeste 0 -- -- 87
2020-05-18 09:00:00 15.6 9 Nordeste 15 Nordeste 0 -- -- 98
2020-05-18 08:00:00 14.1 6 Nordeste 10 Nordeste 0 -- -- 98
2020-05-18 07:00:00 13.9 6 Nordeste 8 Norte 0 -- -- 96
2020-05-18 06:00:00 13.4 0 Calma 4 Noroeste 0 -- -- 94
2020-05-18 05:00:00 14.2 0 Calma 5 Este 0 -- -- 95
2020-05-18 04:00:00 14.9 0 Calma 8 Sudeste 0 -- -- 94
2020-05-18 03:00:00 15.5 0 Calma 8 Este 0 -- -- 93
2020-05-18 02:00:00 16 0 Calma 6 Sudeste 0 -- -- 91
2020-05-18 01:00:00 16.8 3 Sur 8 Sur 0 -- -- 91
2020-05-18 00:00:00 17.9 7 Sur 10 Oeste 0 -- -- 86
2020-05-17 23:00:00 19 4 Sudoeste 15 Sudoeste 0 -- -- 85
2020-05-17 22:00:00 19.3 10 Sudoeste 18 Oeste 0 -- -- 83
2020-05-17 21:00:00 19.7 13 Oeste 21 Sudoeste 0 -- -- 79
2020-05-17 20:00:00 20.4 15 Sudoeste 28 Sudoeste 0 -- -- 72
2020-05-17 19:00:00 22.5 18 Sudoeste 27 Oeste 0 -- -- 62
2020-05-17 18:00:00 23.9 21 Sudoeste 27 Sudoeste 0 -- -- 55
2020-05-17 17:00:00 24.2 20 Sudoeste 27 Sudoeste 0 -- -- 57
2020-05-17 16:00:00 24.5 17 Oeste 27 Oeste 0 -- -- 57
2020-05-17 15:00:00 24 14 Sudoeste 25 Oeste 0 -- -- 59
2020-05-17 14:00:00 22.5 5 Este 15 Nordeste 0 -- -- 72
2020-05-17 13:00:00 22 7 Nordeste 15 Nordeste 0 -- -- 73
2020-05-17 12:00:00 20.2 4 Nordeste 12 Nordeste 0 -- -- 77
2020-05-17 11:00:00 18.7 5 Nordeste 12 Este 0 -- -- 88
2020-05-17 10:00:00 17 6 Este 13 Este 0 -- -- 98
2020-05-17 09:00:00 14.8 5 Este 11 Nordeste 0 -- -- 98
2020-05-17 08:00:00 13.2 5 Nordeste 8 Nordeste 0 -- -- 98
2020-05-17 07:00:00 11.8 4 Nordeste 5 Nordeste 0 -- -- 97
2020-05-17 06:00:00 12.2 3 Sur 9 Sudeste 0 -- -- 96
2020-05-17 05:00:00 12.2 3 Sur 8 Sur 0 -- -- 96
2020-05-17 04:00:00 12.4 4 Sur 7 Sur 0 -- -- 95
2020-05-17 03:00:00 13.4 2 Este 5 Sudeste 0 -- -- 95
2020-05-17 02:00:00 14.2 4 Este 5 Sudeste 0 -- -- 95
2020-05-17 01:00:00 13.8 3 Sur 6 Sudoeste 0 -- -- 93
2020-05-17 00:00:00 14.8 3 Oeste 7 Sur 0 -- -- 91
2020-05-16 23:00:00 15.7 4 Oeste 14 Sudoeste 0 -- -- 87
2020-05-16 22:00:00 16.4 8 Sudoeste 15 Oeste 0 -- -- 84
2020-05-16 21:00:00 17.9 11 Oeste 22 Sudoeste 0 -- -- 78
2020-05-16 20:00:00 19.1 15 Sudoeste 22 Sudoeste 0 -- -- 75
2020-05-16 19:00:00 19.8 14 Sudoeste 27 Oeste 0 -- -- 73
2020-05-16 18:00:00 20.7 21 Oeste 27 Oeste 0 -- -- 71
2020-05-16 17:00:00 21.1 18 Sudoeste 27 Sudoeste 0 -- -- 64
2020-05-16 16:00:00 22.9 18 Sudoeste 27 Sudoeste 0 -- -- 55
2020-05-16 15:00:00 22.3 18 Oeste 28 Oeste 0 -- -- 60
2020-05-16 14:00:00 21.6 15 Oeste 23 Oeste 0 -- -- 62
2020-05-16 13:00:00 19.7 14 Oeste 20 Oeste 0 -- -- 75
2020-05-16 12:00:00 20.1 4 Sudeste 12 Sudeste 0 -- -- 75
2020-05-16 11:00:00 17.5 2 Este 12 Nordeste 0 -- -- 89
2020-05-16 10:00:00 15.5 5 Nordeste 9 Nordeste 0 -- -- 97
2020-05-16 09:00:00 14.1 0 Calma 3 Noroeste 0 -- -- 98
2020-05-16 08:00:00 12.2 0 Calma 7 Sudeste 0 -- -- 97
2020-05-16 07:00:00 11.3 0 Calma 4 Sudoeste 0 -- -- 96
2020-05-16 06:00:00 11.6 2 Oeste 8 Sur 0 -- -- 96
2020-05-16 05:00:00 11.8 0 Calma 6 Noroeste 0 -- -- 95
2020-05-16 04:00:00 11.7 4 Noroeste 5 Noroeste 0 -- -- 95
2020-05-16 03:00:00 11.8 3 Sur 5 Oeste 0 -- -- 93
2020-05-16 02:00:00 12.6 2 Sudoeste 5 Sudoeste 0 -- -- 92
2020-05-16 01:00:00 13.7 4 Sudoeste 7 Noroeste 0 -- -- 92
2020-05-16 00:00:00 13.8 4 Noroeste 10 Noroeste 0 -- -- 92
2020-05-15 23:00:00 14.3 0 Calma 8 Oeste 0 -- -- 87
2020-05-15 22:00:00 15.4 5 Oeste 8 Oeste 0 -- -- 84
2020-05-15 21:00:00 16.5 7 Oeste 22 Sudoeste 0 -- -- 80
2020-05-15 20:00:00 17.6 17 Sudoeste 25 Sudoeste 0 -- -- 75
2020-05-15 19:00:00 20.5 18 Sudoeste 27 Sur 0 -- -- 65
2020-05-15 18:00:00 21.5 18 Sur 32 Sudoeste 0 -- -- 63
2020-05-15 17:00:00 21.5 21 Sur 31 Sur 0 -- -- 64
2020-05-15 16:00:00 20.5 19 Sur 28 Sudoeste 0 -- -- 67
2020-05-15 15:00:00 21.2 6 Sudeste 21 Sur 0 -- -- 61
2020-05-15 14:00:00 20.9 14 Sur 28 Sur 0 -- -- 69
2020-05-15 13:00:00 18.7 12 Este 22 Sudeste 0 -- -- 74
2020-05-15 12:00:00 18 7 Sudeste 27 Este 0 -- -- 76
2020-05-15 11:00:00 17.2 7 Este 24 Este 0 -- -- 80
2020-05-15 10:00:00 14.8 9 Nordeste 17 Nordeste 0 -- -- 89
2020-05-15 09:00:00 12.9 10 Nordeste 18 Nordeste 0 -- -- 94
2020-05-15 08:00:00 12.6 5 Este 18 Nordeste 0 -- -- 96
2020-05-15 07:00:00 12.2 8 Este 17 Nordeste 0 -- -- 96
2020-05-15 06:00:00 12.1 5 Este 15 Este 0 -- -- 96
2020-05-15 05:00:00 12.9 7 Sudeste 18 Sudeste 0 -- -- 96
2020-05-15 04:00:00 13.3 5 Sudeste 20 Sur 0.2 -- -- 96
2020-05-15 03:00:00 13.5 8 Sudeste 22 Sur 1.4 -- -- 96
2020-05-15 02:00:00 13.5 4 Sudeste 29 Sudeste 1.4 -- -- 95
2020-05-15 01:00:00 13.9 9 Sur 20 Sur 0 -- -- 95
2020-05-15 00:00:00 14 10 Sudeste 23 Sudeste 0.8 -- -- 94
2020-05-14 23:00:00 13.9 5 Norte 26 Sur 2.4 -- -- 93
2020-05-14 22:00:00 14 10 Sudeste 46 Sur 0.2 -- -- 94
2020-05-14 21:00:00 14.4 6 Sur 22 Sur 0.4 -- -- 94
2020-05-14 20:00:00 14.4 10 Sur 33 Sudoeste 1 -- -- 90
2020-05-14 19:00:00 15.1 18 Sudoeste 31 Sur 0.6 -- -- 90
2020-05-14 18:00:00 16 15 Sudoeste 29 Sudoeste 0.4 -- -- 90
2020-05-14 17:00:00 14.9 22 Sudoeste 45 Sudoeste 0.8 -- -- 90
2020-05-14 16:00:00 17.6 28 Sudoeste 55 Sudoeste 0 -- -- 88
2020-05-14 15:00:00 15 22 Sudoeste 59 Sudoeste 1.6 -- -- 92
2020-05-14 14:00:00 15.9 26 Sur 58 Sur 0.2 -- -- 89
2020-05-14 13:00:00 13.8 26 Sur 53 Sudoeste 4.2 -- -- 94
2020-05-14 12:00:00 14.5 18 Sur 35 Sur 1.2 -- -- 94
2020-05-14 11:00:00 14.3 23 Sudoeste 39 Sudoeste 2.4 -- -- 94
2020-05-14 10:00:00 14.2 29 Sudoeste 43 Sudoeste 1.4 -- -- 91
2020-05-14 09:00:00 13.4 18 Sur 33 Sur 5.2 -- -- 95
2020-05-14 08:00:00 13.1 19 Sur 33 Sudoeste 4.4 -- -- 95
2020-05-14 07:00:00 12.8 7 Sudeste 33 Sur 2.8 -- -- 94
2020-05-14 06:00:00 12.9 9 Sur 42 Sur 1 -- -- 91
2020-05-14 05:00:00 13.9 13 Sudoeste 24 Sudoeste 0.4 -- -- 87
2020-05-14 04:00:00 14.2 8 Sudoeste 22 Sudoeste 0 -- -- 79
2020-05-14 03:00:00 13.7 8 Sur 22 Oeste 0 -- -- 78
2020-05-14 02:00:00 15 13 Sudoeste 22 Sudoeste 0 -- -- 74
2020-05-14 01:00:00 14.6 3 Sudoeste 17 Sur 0 -- -- 81
2020-05-14 00:00:00 14.8 10 Sudoeste 19 Sudoeste 0 -- -- 81
2020-05-13 23:00:00 14.9 13 Sudoeste 24 Sudoeste 0 -- -- 80
2020-05-13 22:00:00 14.6 14 Sudoeste 26 Sudoeste 0 -- -- 81
2020-05-13 21:00:00 14.9 18 Sudoeste 27 Sudoeste 0 -- -- 81
2020-05-13 20:00:00 15 6 Sudoeste 13 Oeste 0.4 -- -- 89
2020-05-13 19:00:00 14.8 5 Oeste 30 Oeste 0.4 -- -- 90
2020-05-13 18:00:00 15.3 20 Oeste 52 Sudoeste 0.2 -- -- 84
2020-05-13 17:00:00 17.9 26 Sur 48 Sur 0 -- -- 73
2020-05-13 16:00:00 21.9 28 Sur 42 Sur 0 -- -- 60
2020-05-13 15:00:00 21 29 Sur 47 Sur 0 -- -- 57
2020-05-13 14:00:00 21.5 26 Sur 40 Sur 0 -- -- 62
2020-05-13 13:00:00 20.6 25 Sur 37 Sur 0 -- -- 63
2020-05-13 12:00:00 18.9 24 Sudoeste 32 Sudoeste 0 -- -- 70
2020-05-13 11:00:00 17.7 18 Sudoeste 26 Sudoeste 0 -- -- 81
2020-05-13 10:00:00 15.7 4 Oeste 18 Sur 1.4 -- -- 96
2020-05-13 09:00:00 14.7 3 Sudeste 9 Sudeste 0 -- -- 96
2020-05-13 08:00:00 13 2 Este 6 Este 0 -- -- 95
2020-05-13 07:00:00 13 4 Este 8 Este 0.2 -- -- 94
2020-05-13 06:00:00 13.4 2 Este 9 Sur 0 -- -- 94
2020-05-13 05:00:00 13.6 5 Oeste 18 Sur 0.2 -- -- 92
2020-05-13 04:00:00 13.3 6 Sudoeste 13 Sudoeste 0 -- -- 84
2020-05-13 03:00:00 14 11 Sudoeste 18 Oeste 0 -- -- 82
2020-05-13 02:00:00 14.8 10 Sudoeste 23 Sudoeste 0 -- -- 78
2020-05-13 01:00:00 15.3 13 Sudoeste 23 Sudoeste 0 -- -- 77
2020-05-13 00:00:00 15.3 14 Sudoeste 24 Sudoeste 0 -- -- 78
2020-05-12 23:00:00 14.6 13 Sudoeste 18 Sudoeste 0 -- -- 79
2020-05-12 22:00:00 14.7 10 Sudoeste 22 Sudoeste 0 -- -- 75
2020-05-12 21:00:00 16.8 15 Sudoeste 28 Sudoeste 0 -- -- 70
2020-05-12 20:00:00 18.6 19 Sudoeste 32 Sudoeste 0 -- -- 65
2020-05-12 19:00:00 19.1 22 Sudoeste 37 Sudoeste 0 -- -- 65
2020-05-12 18:00:00 19.6 24 Sudoeste 40 Sur 0 -- -- 63
2020-05-12 17:00:00 19.4 22 Sudoeste 40 Sudoeste 0 -- -- 69
2020-05-12 16:00:00 18.6 23 Sudoeste 32 Sudoeste 0 -- -- 69
2020-05-12 15:00:00 17 21 Sur 30 Sur 0 -- -- 79
2020-05-12 14:00:00 16.8 15 Sur 33 Sudeste 0.4 -- -- 85
2020-05-12 13:00:00 16.5 18 Sur 30 Sudeste 0 -- -- 80
2020-05-12 12:00:00 16.9 7 Sudeste 24 Este 0 -- -- 84
2020-05-12 11:00:00 14.1 6 Este 15 Sudeste 0 -- -- 95
2020-05-12 10:00:00 12.9 6 Nordeste 15 Nordeste 0.8 -- -- 95
2020-05-12 09:00:00 12.9 4 Norte 31 Oeste 1.4 -- -- 94
2020-05-12 08:00:00 13.8 16 Oeste 26 Oeste 0.2 -- -- 96
2020-05-12 07:00:00 13.6 2 Nordeste 7 Nordeste 0.4 -- -- 97
2020-05-12 06:00:00 13.1 3 Nordeste 9 Nordeste 0 -- -- 96
2020-05-12 05:00:00 12.1 0 Calma 7 Este 0 -- -- 93
2020-05-12 04:00:00 12.8 5 Este 9 Norte 0 -- -- 89
2020-05-12 03:00:00 13.6 0 Calma 4 Oeste 0 -- -- 87
2020-05-12 02:00:00 14.7 3 Sudoeste 11 Sur 0 -- -- 87
2020-05-12 01:00:00 14.7 0 Calma 14 Sudoeste 0 -- -- 88
2020-05-12 00:00:00 14.7 12 Sudoeste 14 Sudoeste 0 -- -- 89
2020-05-11 23:00:00 15 8 Sudoeste 9 Sudoeste 0 -- -- 84
2020-05-11 22:00:00 16.6 7 Sudoeste 11 Sudoeste 0 -- -- 80
2020-05-11 21:00:00 18.2 10 Sudoeste 21 Oeste 0 -- -- 75
2020-05-11 20:00:00 19.4 18 Oeste 28 Oeste 0 -- -- 69
2020-05-11 19:00:00 19.9 19 Sudoeste 32 Sudoeste 0 -- -- 67
2020-05-11 18:00:00 20.4 23 Sudoeste 36 Sudoeste 0 -- -- 69
2020-05-11 17:00:00 22 23 Sudoeste 38 Sudoeste 0 -- -- 64
2020-05-11 16:00:00 22.9 26 Sudoeste 43 Sudoeste 0 -- -- 61
2020-05-11 15:00:00 22.3 28 Oeste 42 Sudoeste 0 -- -- 63
2020-05-11 14:00:00 22.3 31 Sudoeste 45 Sudoeste 0 -- -- 63
2020-05-11 13:00:00 21.8 31 Sudoeste 45 Sudoeste 0 -- -- 63
2020-05-11 12:00:00 20.9 30 Sudoeste 41 Oeste 0 -- -- 69
2020-05-11 11:00:00 17.9 18 Sudoeste 32 Sudoeste 0.2 -- -- 90
2020-05-11 10:00:00 17.8 25 Sudoeste 46 Sudoeste 0 -- -- 84
2020-05-11 09:00:00 18.7 28 Sudoeste 45 Sur 0 -- -- 81
2020-05-11 08:00:00 17.7 27 Sudoeste 41 Sudoeste 0 -- -- 84
2020-05-11 07:00:00 17.3 24 Sudoeste 41 Sudoeste 0 -- -- 84
2020-05-11 06:00:00 17.5 25 Sudoeste 39 Sudoeste 0 -- -- 81
2020-05-11 05:00:00 17.7 21 Sudoeste 35 Sudoeste 0 -- -- 80
2020-05-11 04:00:00 17.5 21 Sudoeste 32 Sudoeste 0 -- -- 78
2020-05-11 03:00:00 17 15 Sudoeste 27 Sudoeste 0 -- -- 81
2020-05-11 02:00:00 16.6 16 Sudoeste 31 Oeste 0 -- -- 81
2020-05-11 01:00:00 16.5 17 Oeste 29 Oeste 0 -- -- 79
2020-05-11 00:00:00 16.5 19 Oeste 32 Oeste 0 -- -- 78
2020-05-10 23:00:00 16.6 23 Oeste 41 Oeste 0 -- -- 76
2020-05-10 22:00:00 16.9 23 Oeste 41 Sudoeste 0 -- -- 75
2020-05-10 21:00:00 17.7 29 Oeste 47 Oeste 0 -- -- 70
2020-05-10 20:00:00 18.5 33 Oeste 48 Oeste 0 -- -- 71
2020-05-10 19:00:00 19.1 28 Sudoeste 49 Sudoeste 0 -- -- 69
2020-05-10 18:00:00 19.8 31 Oeste 49 Sudoeste 0 -- -- 64
2020-05-10 17:00:00 20.4 37 Oeste 53 Oeste 0 -- -- 66
2020-05-10 16:00:00 20.8 33 Oeste 51 Sudoeste 0 -- -- 69
2020-05-10 15:00:00 20.8 31 Sudoeste 42 Sudoeste 0 -- -- 73
2020-05-10 14:00:00 20.3 24 Sudoeste 35 Oeste 0 -- -- 76
2020-05-10 13:00:00 18.2 20 Sudoeste 43 Sudoeste 1.6 -- -- 91
2020-05-10 12:00:00 19.6 23 Oeste 33 Sudoeste 0 -- -- 74
2020-05-10 11:00:00 17.6 12 Noroeste 34 Oeste 0 -- -- 79
2020-05-10 10:00:00 17.6 20 Oeste 30 Oeste 0 -- -- 82
2020-05-10 09:00:00 14.9 7 Oeste 28 Oeste 0.4 -- -- 95
2020-05-10 08:00:00 15.1 27 Oeste 44 Oeste 0.6 -- -- 83
2020-05-10 07:00:00 15.1 9 Oeste 17 Oeste 0 -- -- 84
2020-05-10 06:00:00 14.9 9 Oeste 19 Oeste 0 -- -- 85
2020-05-10 05:00:00 15.2 13 Oeste 20 Oeste 0 -- -- 82
2020-05-10 04:00:00 15.7 13 Oeste 27 Oeste 0 -- -- 83
2020-05-10 03:00:00 16 17 Oeste 26 Oeste 0 -- -- 82
2020-05-10 02:00:00 16.2 14 Oeste 28 Oeste 0 -- -- 84
2020-05-10 01:00:00 16.3 17 Oeste 27 Oeste 0.2 -- -- 84
2020-05-10 00:00:00 16.5 15 Oeste 28 Sudoeste 0 -- -- 84
2020-05-09 23:00:00 16.4 15 Sudoeste 24 Sudoeste 0 -- -- 85
2020-05-09 22:00:00 16.4 15 Sudoeste 26 Sudoeste 0 -- -- 90
2020-05-09 21:00:00 15.9 11 Sudoeste 18 Sudoeste 0 -- -- 92
2020-05-09 20:00:00 15.7 12 Sudoeste 19 Sudoeste 0 -- -- 91
2020-05-09 19:00:00 15.4 13 Sudoeste 44 Sudoeste 2.6 -- -- 92
2020-05-09 18:00:00 19.6 28 Sudoeste 46 Sudoeste 0 -- -- 73
2020-05-09 17:00:00 21.7 31 Sudoeste 41 Sudoeste 0 -- -- 62
2020-05-09 16:00:00 21.9 24 Sudoeste 39 Sudoeste 0 -- -- 63
2020-05-09 15:00:00 21.6 23 Sudoeste 33 Sur 0 -- -- 61
2020-05-09 14:00:00 21.4 20 Sudoeste 37 Sudoeste 0 -- -- 61
2020-05-09 13:00:00 21.7 17 Sudoeste 28 Sudoeste 0 -- -- 60
2020-05-09 12:00:00 20.6 16 Sudoeste 27 Sudoeste 0 -- -- 58
2020-05-09 11:00:00 19.2 15 Sudoeste 24 Oeste 0 -- -- 68
2020-05-09 10:00:00 18.4 16 Sudoeste 24 Sudoeste 0 -- -- 69
2020-05-09 09:00:00 17.1 15 Oeste 22 Sudoeste 0 -- -- 73
2020-05-09 08:00:00 15.3 10 Oeste 16 Oeste 0 -- -- 84
2020-05-09 07:00:00 15 6 Noroeste 10 Oeste 0 -- -- 85
2020-05-09 06:00:00 15.5 4 Oeste 22 Sudoeste 0 -- -- 83
2020-05-09 05:00:00 16.3 14 Sudoeste 28 Sudoeste 0 -- -- 84
2020-05-09 04:00:00 17 21 Sudoeste 30 Sudoeste 0 -- -- 81
2020-05-09 03:00:00 16.1 14 Sudoeste 22 Sudoeste 0 -- -- 82
2020-05-09 02:00:00 15.6 10 Sudoeste 22 Sudoeste 0 -- -- 82
2020-05-09 01:00:00 16.8 18 Sudoeste 32 Sudoeste 0 -- -- 76
2020-05-09 00:00:00 16.5 18 Sudoeste 26 Sudoeste 0 -- -- 80
2020-05-08 23:00:00 16.2 14 Sudoeste 22 Sudoeste 0 -- -- 82
2020-05-08 22:00:00 17 13 Sudoeste 28 Sudoeste 0 -- -- 79
2020-05-08 21:00:00 18.5 19 Sudoeste 29 Sudoeste 0 -- -- 73
2020-05-08 20:00:00 20.7 20 Sudoeste 33 Sudoeste 0 -- -- 65
2020-05-08 19:00:00 21.2 24 Oeste 35 Sudoeste 0 -- -- 67
2020-05-08 18:00:00 22.2 23 Sudoeste 36 Oeste 0 -- -- 63
2020-05-08 17:00:00 22.9 26 Sudoeste 40 Sudoeste 0 -- -- 58
2020-05-08 16:00:00 22.9 26 Sudoeste 40 Sudoeste 0 -- -- 64
2020-05-08 15:00:00 23.3 23 Sudoeste 34 Sudoeste 0 -- -- 63
2020-05-08 14:00:00 23 23 Sudoeste 36 Sudoeste 0 -- -- 67
2020-05-08 13:00:00 22.9 23 Sudoeste 40 Sur 0 -- -- 71
2020-05-08 12:00:00 23.1 27 Sur 37 Sur 0 -- -- 70
2020-05-08 11:00:00 22.8 21 Sudoeste 30 Sudoeste 0 -- -- 65
2020-05-08 10:00:00 19.5 6 Sudeste 14 Sur 0 -- -- 71
2020-05-08 09:00:00 16.3 3 Sudeste 12 Sudeste 0 -- -- 86
2020-05-08 08:00:00 13.9 3 Sur 9 Sudoeste 0 -- -- 92
2020-05-08 07:00:00 13.2 8 Sudoeste 9 Sudoeste 0 -- -- 83
2020-05-08 06:00:00 14.3 8 Sudoeste 12 Sur 0 -- -- 84
2020-05-08 05:00:00 15.1 4 Sudoeste 12 Noroeste 0 -- -- 78
2020-05-08 04:00:00 16.3 5 Noroeste 10 Norte 0 -- -- 74
2020-05-08 03:00:00 17.8 6 Sur 19 Sur 0 -- -- 70
2020-05-08 02:00:00 18.5 8 Sudeste 21 Sur 0 -- -- 68
2020-05-08 01:00:00 19.5 14 Sur 30 Sur 0 -- -- 63
2020-05-08 00:00:00 20.2 18 Sur 31 Sudeste 0 -- -- 60
2020-05-07 23:00:00 20.8 18 Sur 39 Sur 0 -- -- 56
2020-05-07 22:00:00 21.9 19 Sur 37 Sur 0 -- -- 52
2020-05-07 21:00:00 23.5 18 Sur 46 Sur 0 -- -- 49
2020-05-07 20:00:00 26.5 18 Sudeste 48 Sur 0 -- -- 46
2020-05-07 19:00:00 28.3 12 Sudeste 40 Sur 0 -- -- 45
2020-05-07 18:00:00 29.2 20 Sur 35 Sur 0 -- -- 44
2020-05-07 17:00:00 27.4 11 Sudoeste 37 Sur 0 -- -- 57
2020-05-07 16:00:00 30.1 17 Sur 36 Sur 0 -- -- 40
2020-05-07 15:00:00 30 12 Sur 23 Sur 0 -- -- 45
2020-05-07 14:00:00 27.2 4 Sudeste 24 Sudoeste 0 -- -- 49
2020-05-07 13:00:00 25.2 4 Sur 16 Sudoeste 0 -- -- 50
2020-05-07 12:00:00 23.9 4 Sur 16 Sur 0 -- -- 53
2020-05-07 11:00:00 21.6 5 Nordeste 12 Nordeste 0 -- -- 68
2020-05-07 10:00:00 18.4 5 Nordeste 8 Nordeste 0 -- -- 77
2020-05-07 09:00:00 16.8 4 Norte 8 Nordeste 0 -- -- 78
2020-05-07 08:00:00 15.7 3 Norte 9 Noroeste 0 -- -- 77
2020-05-07 07:00:00 17.2 7 Norte 15 Noroeste 0 -- -- 65
2020-05-07 06:00:00 15.9 7 Noroeste 11 Noroeste 0 -- -- 73
2020-05-07 05:00:00 16.3 5 Noroeste 9 Norte 0 -- -- 71
2020-05-07 04:00:00 16.8 5 Norte 8 Norte 0 -- -- 71
2020-05-07 03:00:00 16.7 2 Norte 5 Norte 0 -- -- 79
2020-05-07 02:00:00 17.8 2 Sudeste 13 Nordeste 0 -- -- 75
2020-05-07 01:00:00 19.3 9 Nordeste 15 Nordeste 0 -- -- 70
2020-05-07 00:00:00 20.7 7 Norte 15 Norte 0 -- -- 62
2020-05-06 23:00:00 19.8 8 Noroeste 13 Norte 0 -- -- 67
2020-05-06 22:00:00 20.2 6 Oeste 10 Oeste 0 -- -- 69
2020-05-06 21:00:00 22.9 7 Oeste 19 Oeste 0 -- -- 61
2020-05-06 20:00:00 26.4 11 Oeste 23 Oeste 0 -- -- 47
2020-05-06 19:00:00 27.8 17 Oeste 25 Oeste 0 -- -- 39
2020-05-06 18:00:00 28.9 16 Oeste 26 Sudoeste 0 -- -- 35
2020-05-06 17:00:00 28.6 10 Oeste 24 Sur 0 -- -- 36
2020-05-06 16:00:00 27.8 7 Norte 17 Norte 0 -- -- 32
2020-05-06 15:00:00 26.5 6 Norte 17 Nordeste 0 -- -- 36
2020-05-06 14:00:00 25.8 6 Norte 21 Nordeste 0 -- -- 43
2020-05-06 13:00:00 24.8 9 Nordeste 17 Nordeste 0 -- -- 51
2020-05-06 12:00:00 23.5 8 Nordeste 19 Nordeste 0 -- -- 56
2020-05-06 11:00:00 20.7 9 Nordeste 17 Nordeste 0 -- -- 68
2020-05-06 10:00:00 17.8 9 Nordeste 17 Nordeste 0 -- -- 78
2020-05-06 09:00:00 14.5 5 Norte 12 Noroeste 0 -- -- 92
2020-05-06 08:00:00 12.5 5 Noroeste 13 Norte 0 -- -- 92
2020-05-06 07:00:00 13.3 8 Norte 13 Norte 0 -- -- 90
2020-05-06 06:00:00 13.4 4 Norte 14 Oeste 0 -- -- 90
2020-05-06 05:00:00 13.8 6 Noroeste 13 Noroeste 0 -- -- 88
2020-05-06 04:00:00 14.2 9 Noroeste 14 Noroeste 0 -- -- 86
2020-05-06 03:00:00 15 4 Noroeste 15 Noroeste 0 -- -- 84
2020-05-06 02:00:00 15.6 9 Noroeste 15 Noroeste 0 -- -- 83
2020-05-06 01:00:00 15.9 8 Oeste 16 Oeste 0 -- -- 92
2020-05-06 00:00:00 16.8 11 Oeste 19 Oeste 0 -- -- 90
2020-05-05 23:00:00 17.5 12 Oeste 24 Oeste 0 -- -- 84
2020-05-05 22:00:00 17.9 17 Oeste 29 Oeste 0 -- -- 77
2020-05-05 21:00:00 19.1 19 Oeste 31 Sudoeste 0 -- -- 72
2020-05-05 20:00:00 21.1 25 Oeste 35 Oeste 0 -- -- 61
2020-05-05 19:00:00 22.2 23 Oeste 35 Sudoeste 0 -- -- 59
2020-05-05 18:00:00 23.1 23 Oeste 34 Oeste 0 -- -- 57
2020-05-05 17:00:00 23.8 24 Oeste 33 Oeste 0 -- -- 49
2020-05-05 16:00:00 24.8 20 Sudoeste 29 Sudoeste 0 -- -- 45
2020-05-05 15:00:00 24.7 19 Sudoeste 31 Sudoeste 0 -- -- 54
2020-05-05 14:00:00 24.1 19 Sudoeste 26 Sudoeste 0 -- -- 55
2020-05-05 13:00:00 23.5 15 Sudoeste 26 Oeste 0 -- -- 58
2020-05-05 12:00:00 21.6 8 Nordeste 16 Nordeste 0 -- -- 63
2020-05-05 11:00:00 19.9 7 Nordeste 13 Nordeste 0 -- -- 78
2020-05-05 10:00:00 17.6 6 Nordeste 12 Nordeste 0 -- -- 94
2020-05-05 09:00:00 16.1 4 Norte 11 Norte 0 -- -- 98
2020-05-05 08:00:00 15.1 3 Norte 10 Norte 0 -- -- 97
2020-05-05 07:00:00 13.9 4 Norte 12 Noroeste 0 -- -- 97
2020-05-05 06:00:00 14.5 4 Norte 12 Nordeste 0 -- -- 95
2020-05-05 05:00:00 15.3 7 Oeste 15 Oeste 0 -- -- 94
2020-05-05 04:00:00 16.2 12 Oeste 17 Oeste 0 -- -- 93
2020-05-05 03:00:00 16.4 8 Oeste 22 Oeste 0 -- -- 90
2020-05-05 02:00:00 17.3 15 Oeste 26 Oeste 0 -- -- 89
2020-05-05 01:00:00 17.6 17 Oeste 25 Sudoeste 0 -- -- 90
2020-05-05 00:00:00 17.8 17 Oeste 29 Sudoeste 0 -- -- 90
2020-05-04 23:00:00 18 18 Sudoeste 28 Sudoeste 0 -- -- 90
2020-05-04 22:00:00 18.3 13 Sudoeste 28 Sudoeste 0 -- -- 89
2020-05-04 21:00:00 19.1 20 Sudoeste 29 Sudoeste 0 -- -- 84
2020-05-04 20:00:00 20.4 19 Sudoeste 30 Sudoeste 0 -- -- 77
2020-05-04 19:00:00 21.9 20 Sudoeste 33 Sudoeste 0 -- -- 70
2020-05-04 18:00:00 23.2 23 Sudoeste 37 Sudoeste 0 -- -- 65
2020-05-04 17:00:00 23.5 26 Sudoeste 35 Sudoeste 0 -- -- 64
2020-05-04 16:00:00 24 21 Sudoeste 37 Sudoeste 0 -- -- 63
2020-05-04 15:00:00 23.4 26 Sudoeste 42 Sudoeste 0 -- -- 66
2020-05-04 14:00:00 22.7 28 Sudoeste 44 Sudoeste 0 -- -- 67
2020-05-04 13:00:00 22.5 31 Sudoeste 42 Sudoeste 0 -- -- 71
2020-05-04 12:00:00 23.1 26 Sudoeste 50 Sudoeste 0 -- -- 74
2020-05-04 11:00:00 23.2 36 Sur 51 Sur 0 -- -- 69
2020-05-04 10:00:00 22.4 19 Oeste 26 Oeste 0 -- -- 69
2020-05-04 09:00:00 20.1 10 Oeste 15 Oeste 0 -- -- 69
2020-05-04 08:00:00 17.5 8 Noroeste 14 Noroeste 0 -- -- 74
2020-05-04 07:00:00 17.8 3 Norte 14 Noroeste 0 -- -- 78
2020-05-04 06:00:00 18.7 4 Norte 12 Nordeste 0 -- -- 80
2020-05-04 05:00:00 19.1 8 Nordeste 14 Este 0 -- -- 72
2020-05-04 04:00:00 19.3 3 Nordeste 12 Nordeste 0 -- -- 64
2020-05-04 03:00:00 20.1 7 Este 12 Nordeste 0 -- -- 61
2020-05-04 02:00:00 20.6 4 Este 13 Este 0 -- -- 60
2020-05-04 01:00:00 20.3 7 Este 14 Nordeste 0 -- -- 62
2020-05-04 00:00:00 20.9 5 Sudeste 13 Sudeste 0 -- -- 56
2020-05-03 23:00:00 22.5 3 Este 8 Este 0 -- -- 61
2020-05-03 22:00:00 24.9 0 Calma 13 Sudeste 0 -- -- 55
2020-05-03 21:00:00 28.4 7 Sudeste 18 Sudeste 0 -- -- 45
2020-05-03 20:00:00 32.5 7 Sur 13 Sur 0 -- -- 41
2020-05-03 19:00:00 34.4 9 Sur 15 Sudoeste 0 -- -- 35
2020-05-03 18:00:00 35.5 10 Sudoeste 16 Sudoeste 0 -- -- 32
2020-05-03 17:00:00 35.3 4 Sur 15 Sudoeste 0 -- -- 31
2020-05-03 16:00:00 34.9 7 Sur 19 Sur 0 -- -- 33
2020-05-03 15:00:00 33.8 7 Sudeste 21 Este 0 -- -- 37
2020-05-03 14:00:00 30.9 6 Este 18 Este 0 -- -- 46
2020-05-03 13:00:00 28.9 8 Este 19 Este 0 -- -- 54
2020-05-03 12:00:00 26.2 10 Nordeste 18 Nordeste 0 -- -- 62
2020-05-03 11:00:00 23.5 10 Nordeste 21 Nordeste 0 -- -- 71
2020-05-03 10:00:00 19.7 12 Nordeste 20 Nordeste 0 -- -- 82
2020-05-03 09:00:00 16.8 7 Nordeste 14 Nordeste 0 -- -- 97
2020-05-03 08:00:00 14.5 5 Nordeste 12 Nordeste 0 -- -- 96
2020-05-03 07:00:00 14.5 8 Nordeste 12 Nordeste 0 -- -- 96
2020-05-03 06:00:00 14.9 6 Nordeste 9 Nordeste 0 -- -- 96
2020-05-03 05:00:00 14.7 4 Nordeste 6 Nordeste 0 -- -- 95
2020-05-03 04:00:00 14.1 0 Calma 3 Nordeste 0 -- -- 90
2020-05-03 03:00:00 14.8 0 Calma 9 Sudeste 0 -- -- 89
2020-05-03 02:00:00 15.2 3 Este 14 Sudeste 0 -- -- 88
2020-05-03 01:00:00 16.2 4 Noroeste 8 Noroeste 0 -- -- 78
2020-05-03 00:00:00 17.4 3 Noroeste 9 Noroeste 0 -- -- 76
2020-05-02 23:00:00 18.7 4 Noroeste 13 Noroeste 0 -- -- 73
2020-05-02 22:00:00 19.9 8 Oeste 21 Oeste 0 -- -- 71
2020-05-02 21:00:00 22.8 14 Oeste 23 Oeste 0 -- -- 62
2020-05-02 20:00:00 27.1 14 Oeste 22 Noroeste 0 -- -- 49
2020-05-02 19:00:00 28.4 14 Oeste 22 Oeste 0 -- -- 45
2020-05-02 18:00:00 29.2 16 Sudoeste 22 Oeste 0 -- -- 49
2020-05-02 17:00:00 29.5 15 Oeste 22 Oeste 0 -- -- 50
2020-05-02 16:00:00 29.4 16 Sudoeste 22 Sudoeste 0 -- -- 53
2020-05-02 15:00:00 29 13 Sudoeste 21 Sudoeste 0 -- -- 55
2020-05-02 14:00:00 27 4 Nordeste 12 Nordeste 0 -- -- 60
2020-05-02 13:00:00 25.5 6 Nordeste 16 Nordeste 0 -- -- 68
2020-05-02 12:00:00 23.6 8 Nordeste 20 Nordeste 0 -- -- 72
2020-05-02 11:00:00 21.4 10 Nordeste 18 Nordeste 0 -- -- 79
2020-05-02 10:00:00 18.4 9 Nordeste 15 Nordeste 0 -- -- 90
2020-05-02 09:00:00 15.7 8 Nordeste 13 Nordeste 0 -- -- 96
2020-05-02 08:00:00 13.8 5 Norte 8 Norte 0 -- -- 96
2020-05-02 07:00:00 14 5 Norte 12 Noroeste 0 -- -- 95
2020-05-02 06:00:00 14.2 5 Norte 10 Noroeste 0 -- -- 96
2020-05-02 05:00:00 13.9 7 Noroeste 12 Noroeste 0 -- -- 95
2020-05-02 04:00:00 13.1 5 Oeste 7 Noroeste 0 -- -- 94
2020-05-02 03:00:00 13.7 0 Calma 4 Este 0 -- -- 91
2020-05-02 02:00:00 14.8 0 Calma 9 Oeste 0 -- -- 91
2020-05-02 01:00:00 15.9 5 Oeste 12 Oeste 0 -- -- 89
2020-05-02 00:00:00 16.4 8 Oeste 18 Oeste 0 -- -- 88
2020-05-01 23:00:00 17 12 Oeste 20 Oeste 0 -- -- 85
2020-05-01 22:00:00 17.6 14 Oeste 23 Oeste 0 -- -- 83
2020-05-01 21:00:00 18.9 15 Oeste 29 Oeste 0 -- -- 76
2020-05-01 20:00:00 20.6 23 Oeste 32 Oeste 0 -- -- 66
2020-05-01 19:00:00 21.7 22 Oeste 33 Oeste 0 -- -- 64
2020-05-01 18:00:00 23.2 22 Oeste 31 Oeste 0 -- -- 61
2020-05-01 17:00:00 25 18 Sudoeste 25 Sudoeste 0 -- -- 46
2020-05-01 16:00:00 24.6 18 Sudoeste 26 Oeste 0 -- -- 52
2020-05-01 15:00:00 24.8 18 Oeste 24 Oeste 0 -- -- 52
2020-05-01 14:00:00 24.5 12 Oeste 20 Sudoeste 0 -- -- 56
2020-05-01 13:00:00 23.1 5 Norte 12 Este 0 -- -- 57
2020-05-01 12:00:00 21.8 5 Nordeste 11 Nordeste 0 -- -- 62
2020-05-01 11:00:00 19.5 8 Nordeste 14 Nordeste 0 -- -- 75
2020-05-01 10:00:00 16.3 6 Nordeste 11 Norte 0 -- -- 85
2020-05-01 09:00:00 13.5 5 Norte 9 Norte 0 -- -- 92
2020-05-01 08:00:00 12 3 Norte 13 Noroeste 0 -- -- 91
2020-05-01 07:00:00 11.8 5 Norte 9 Noroeste 0 -- -- 92
2020-05-01 06:00:00 12.2 4 Norte 10 Norte 0 -- -- 92
2020-05-01 05:00:00 12.8 3 Norte 10 Noroeste 0 -- -- 89
2020-05-01 04:00:00 12.9 3 Noroeste 11 Noroeste 0 -- -- 91
2020-05-01 03:00:00 12.6 5 Noroeste 9 Noroeste 0 -- -- 94
2020-05-01 02:00:00 13 2 Noroeste 4 Oeste 0 -- -- 90
2020-05-01 01:00:00 14.3 0 Calma 7 Noroeste 0 -- -- 89
2020-05-01 00:00:00 14.8 5 Oeste 9 Oeste 0 -- -- 88
2020-04-30 23:00:00 15.6 9 Oeste 13 Oeste 0 -- -- 87
2020-04-30 22:00:00 16.7 9 Oeste 19 Oeste 0 -- -- 84
2020-04-30 21:00:00 18.1 15 Oeste 23 Oeste 0 -- -- 78
2020-04-30 20:00:00 20.3 15 Oeste 25 Oeste 0 -- -- 67
2020-04-30 19:00:00 20.8 17 Oeste 27 Sudoeste 0 -- -- 68
2020-04-30 18:00:00 21.4 20 Sudoeste 30 Sudoeste 0 -- -- 65
2020-04-30 17:00:00 21.5 22 Sudoeste 31 Sudoeste 0 -- -- 64
2020-04-30 16:00:00 21.8 22 Sudoeste 36 Sudoeste 0 -- -- 66
2020-04-30 15:00:00 22 22 Sudoeste 32 Oeste 0 -- -- 60
2020-04-30 14:00:00 22.4 21 Sudoeste 29 Sudoeste 0 -- -- 58
2020-04-30 13:00:00 21.1 17 Sudoeste 25 Sudoeste 0 -- -- 68
2020-04-30 12:00:00 20 17 Sudoeste 22 Sudoeste 0 -- -- 73
2020-04-30 11:00:00 17.7 8 Noroeste 30 Oeste 0.4 -- -- 84
2020-04-30 10:00:00 17.7 18 Oeste 27 Oeste 0 -- -- 88
2020-04-30 09:00:00 16.5 10 Oeste 18 Oeste 0 -- -- 95
2020-04-30 08:00:00 15.1 6 Oeste 18 Sudoeste 0 -- -- 94
2020-04-30 07:00:00 15.5 11 Oeste 17 Oeste 0 -- -- 94
2020-04-30 06:00:00 15.2 10 Oeste 19 Oeste 0 -- -- 93
2020-04-30 05:00:00 14.7 10 Oeste 17 Oeste 0 -- -- 93
2020-04-30 04:00:00 14.7 10 Oeste 15 Oeste 0 -- -- 93
2020-04-30 03:00:00 15.4 12 Oeste 26 Oeste 0 -- -- 90
2020-04-30 02:00:00 15.9 18 Oeste 31 Oeste 0 -- -- 89
2020-04-30 01:00:00 16.1 19 Oeste 31 Oeste 0 -- -- 88
2020-04-30 00:00:00 16.3 19 Oeste 30 Oeste 0 -- -- 87
2020-04-29 23:00:00 16.4 18 Oeste 30 Sudoeste 0 -- -- 84
2020-04-29 22:00:00 16.4 17 Sudoeste 27 Oeste 0 -- -- 83
2020-04-29 21:00:00 17.2 19 Oeste 37 Sudoeste 0 -- -- 77
2020-04-29 20:00:00 18.7 28 Oeste 38 Sudoeste 0 -- -- 67
2020-04-29 19:00:00 19.8 24 Sudoeste 37 Oeste 0 -- -- 64
2020-04-29 18:00:00 19.7 25 Oeste 36 Sudoeste 0 -- -- 64
2020-04-29 17:00:00 21.5 22 Sudoeste 31 Oeste 0 -- -- 46
2020-04-29 16:00:00 21.3 23 Sudoeste 35 Oeste 0 -- -- 53
2020-04-29 15:00:00 21.1 23 Sudoeste 31 Oeste 0 -- -- 55
2020-04-29 14:00:00 21.2 20 Sudoeste 27 Oeste 0 -- -- 57
2020-04-29 13:00:00 21.2 16 Sudoeste 25 Oeste 0 -- -- 59
2020-04-29 12:00:00 20.3 5 Este 12 Este 0 -- -- 59
2020-04-29 11:00:00 17.4 6 Nordeste 12 Nordeste 0 -- -- 68
2020-04-29 10:00:00 14.4 5 Nordeste 11 Este 0 -- -- 82
2020-04-29 09:00:00 11.5 2 Nordeste 12 Noroeste 0 -- -- 94
2020-04-29 08:00:00 8.6 0 Calma 8 Norte 0 -- -- 92
2020-04-29 07:00:00 9.7 3 Norte 9 Norte 0 -- -- 94
2020-04-29 06:00:00 10.1 4 Norte 9 Nordeste 0 -- -- 91
2020-04-29 05:00:00 10.9 5 Norte 12 Noroeste 0 -- -- 90
2020-04-29 04:00:00 11.5 6 Noroeste 14 Noroeste 0 -- -- 89
2020-04-29 03:00:00 12.2 4 Noroeste 11 Noroeste 0 -- -- 89
2020-04-29 02:00:00 13.1 4 Oeste 10 Noroeste 0 -- -- 91
2020-04-29 01:00:00 13.6 9 Oeste 11 Oeste 0 -- -- 89
2020-04-29 00:00:00 14.5 10 Oeste 15 Oeste 0 -- -- 85
2020-04-28 23:00:00 15.2 12 Oeste 19 Oeste 0 -- -- 79
2020-04-28 22:00:00 16.1 14 Oeste 26 Oeste 0 -- -- 78
2020-04-28 21:00:00 17.3 17 Oeste 31 Oeste 0 -- -- 66
2020-04-28 20:00:00 19.8 20 Oeste 29 Oeste 0 -- -- 54
2020-04-28 19:00:00 21.5 15 Sudoeste 25 Oeste 0 -- -- 49
2020-04-28 18:00:00 22.1 16 Sudoeste 26 Sudoeste 0 -- -- 53
2020-04-28 17:00:00 22.2 19 Sudoeste 25 Oeste 0 -- -- 51
2020-04-28 16:00:00 21.6 18 Oeste 28 Oeste 0 -- -- 49
2020-04-28 15:00:00 21.4 19 Sudoeste 29 Oeste 0 -- -- 57
2020-04-28 14:00:00 21.3 15 Sudoeste 21 Oeste 0 -- -- 56
2020-04-28 13:00:00 18.7 2 Norte 11 Nordeste 0 -- -- 73
2020-04-28 12:00:00 18.2 5 Nordeste 12 Nordeste 0 -- -- 80
2020-04-28 11:00:00 15.8 3 Nordeste 8 Nordeste 0 -- -- 91
2020-04-28 10:00:00 14 2 Norte 9 Nordeste 0 -- -- 96
2020-04-28 09:00:00 12.6 4 Nordeste 9 Nordeste 0 -- -- 96
2020-04-28 08:00:00 12.4 5 Nordeste 12 Noroeste 0 -- -- 95
2020-04-28 07:00:00 12 6 Norte 12 Norte 0 -- -- 94
2020-04-28 06:00:00 11.5 5 Noroeste 10 Norte 0 -- -- 92
2020-04-28 05:00:00 12.1 0 Calma 5 Noroeste 0 -- -- 90
2020-04-28 04:00:00 12.8 3 Noroeste 11 Oeste 0 -- -- 88
2020-04-28 03:00:00 13.1 5 Oeste 13 Oeste 0 -- -- 92
2020-04-28 02:00:00 14 9 Oeste 15 Oeste 0 -- -- 89
2020-04-28 01:00:00 14.1 11 Oeste 16 Oeste 0 -- -- 90
2020-04-28 00:00:00 14.4 11 Oeste 19 Oeste 0 -- -- 88